Time;durP1;ratioP1;P1;durP2;ratioP2;P2;SDS_P1;SDS_P2;PMS_P1;PMS_P2;Temp;Humidity;BMP_temperature;BMP_pressure;BME280_temperature;BME280_humidity;BME280_pressure;Samples;Min_cycle;Max_cycle;Signal;HPM_P1;HPM_P2
2022/04/20 00:00:35;;;;;;;5.20;4.77;;;12.60;54.50;;;;;;5004898;28;20445;-67
2022/04/20 00:03:02;;;;;;;4.63;4.23;;;12.70;55.60;;;;;;5010656;28;20441;-67
2022/04/20 00:05:33;;;;;;;4.90;4.50;;;12.70;55.80;;;;;;5012705;28;20429;-67
2022/04/20 00:08:02;;;;;;;5.57;4.50;;;12.70;55.20;;;;;;5011517;28;20468;-67
2022/04/20 00:10:28;;;;;;;5.20;4.80;;;12.60;55.10;;;;;;5010315;28;20461;-67
2022/04/20 00:12:54;;;;;;;4.93;4.53;;;12.60;55.00;;;;;;5023321;28;20935;-67
2022/04/20 00:15:20;;;;;;;5.50;5.10;;;12.60;55.00;;;;;;5009677;28;20435;-67
2022/04/20 00:17:46;;;;;;;5.10;4.80;;;12.60;55.20;;;;;;5010830;28;20449;-67
2022/04/20 00:20:12;;;;;;;5.50;5.00;;;12.50;55.00;;;;;;5010524;28;20180;-67
2022/04/20 00:22:38;;;;;;;4.70;4.33;;;12.50;55.10;;;;;;5009645;28;20182;-72
2022/04/20 00:25:04;;;;;;;4.90;4.50;;;12.40;55.60;;;;;;5010811;28;20443;-68
2022/04/20 00:27:35;;;;;;;6.47;5.97;;;12.40;55.80;;;;;;5008365;28;22141;-67
2022/04/20 00:30:02;;;;;;;4.77;4.40;;;12.40;55.80;;;;;;4997692;28;20817;-70
2022/04/20 00:32:29;;;;;;;5.20;4.80;;;12.40;55.90;;;;;;5003810;28;20525;-68
2022/04/20 00:34:55;;;;;;;5.07;4.77;;;12.50;57.70;;;;;;5010757;28;20434;-68
2022/04/20 00:37:21;;;;;;;4.70;4.40;;;12.60;58.30;;;;;;5008029;28;20436;-68
2022/04/20 00:39:47;;;;;;;7.00;6.40;;;12.50;57.80;;;;;;5011247;28;20436;-67
2022/04/20 00:42:13;;;;;;;5.47;4.80;;;12.50;58.30;;;;;;5008798;28;20553;-67
2022/04/20 00:44:40;;;;;;;5.70;5.30;;;12.50;59.20;;;;;;5012272;28;20755;-67
2022/04/20 00:47:07;;;;;;;5.67;5.17;;;12.40;59.30;;;;;;4995533;28;20826;-68
2022/04/20 00:49:35;;;;;;;5.30;4.00;;;12.40;60.30;;;;;;5005732;28;20465;-68
2022/04/20 00:52:03;;;;;;;6.00;5.57;;;12.30;60.00;;;;;;5005333;28;20926;-67
2022/04/20 00:54:29;;;;;;;5.90;5.40;;;12.30;59.90;;;;;;5009825;28;20445;-68
2022/04/20 00:56:55;;;;;;;5.87;5.47;;;12.20;61.00;;;;;;5010330;28;20467;-68
2022/04/20 00:59:23;;;;;;;5.73;4.90;;;12.20;60.30;;;;;;5010614;28;20437;-68
2022/04/20 01:01:51;;;;;;;6.13;5.63;;;12.20;60.90;;;;;;5009120;28;20452;-67
2022/04/20 01:04:16;;;;;;;5.63;5.13;;;12.10;60.90;;;;;;5009864;28;20930;-75
2022/04/20 01:06:42;;;;;;;5.20;4.80;;;12.10;59.80;;;;;;5008443;28;20476;-67
2022/04/20 01:09:09;;;;;;;5.23;4.83;;;12.00;60.70;;;;;;5009820;28;20194;-67
2022/04/20 01:11:35;;;;;;;7.13;5.63;;;12.00;60.70;;;;;;5009053;28;20868;-68
2022/04/20 01:14:01;;;;;;;5.47;5.07;;;12.00;59.80;;;;;;5011692;28;20521;-67
2022/04/20 01:16:27;;;;;;;5.77;5.30;;;12.00;59.30;;;;;;5001013;28;20237;-68
2022/04/20 01:18:53;;;;;;;5.43;5.00;;;12.00;59.50;;;;;;5010560;28;20870;-67
2022/04/20 01:21:19;;;;;;;5.83;5.27;;;12.00;59.80;;;;;;5007795;28;20192;-75
2022/04/20 01:23:45;;;;;;;5.23;4.77;;;12.00;60.70;;;;;;5004213;28;20245;-68
2022/04/20 01:26:12;;;;;;;5.40;5.00;;;11.90;61.60;;;;;;5007728;28;20915;-68
2022/04/20 01:28:41;;;;;;;6.13;5.33;;;11.90;60.80;;;;;;5008196;28;20490;-67
2022/04/20 01:31:07;;;;;;;6.20;5.70;;;11.80;60.60;;;;;;5005847;28;20926;-67
2022/04/20 01:33:33;;;;;;;5.73;5.23;;;11.70;59.40;;;;;;5010651;28;21015;-67
2022/04/20 01:35:59;;;;;;;8.23;7.23;;;11.70;59.40;;;;;;5010302;28;20428;-67
2022/04/20 01:38:26;;;;;;;5.40;5.00;;;11.70;59.70;;;;;;5005068;28;20189;-68
2022/04/20 01:40:52;;;;;;;6.27;4.53;;;11.70;59.60;;;;;;5008041;28;20265;-68
2022/04/20 01:43:18;;;;;;;7.80;7.20;;;11.60;59.70;;;;;;4996380;28;20535;-67
2022/04/20 01:45:43;;;;;;;5.70;5.20;;;11.60;59.80;;;;;;5004721;28;20195;-67
2022/04/20 01:48:09;;;;;;;5.33;4.83;;;11.50;60.10;;;;;;5007806;28;20238;-67
2022/04/20 01:51:46;;;;;;;6.10;5.70;;;11.40;60.30;;;;;;5009903;28;20201;-67
2022/04/20 01:53:21;;;;;;;6.13;5.63;;;11.30;61.00;;;;;;5009000;28;20454;-74
2022/04/20 01:55:47;;;;;;;6.23;5.73;;;11.40;61.40;;;;;;5007338;28;20535;-67
2022/04/20 01:58:13;;;;;;;5.33;4.50;;;11.30;60.90;;;;;;5015462;28;20436;-69
2022/04/20 02:00:38;;;;;;;5.10;4.60;;;11.30;61.40;;;;;;5013049;28;20186;-68
2022/04/20 02:03:04;;;;;;;7.23;6.57;;;11.30;61.40;;;;;;5014834;28;20183;-67
2022/04/20 02:05:30;;;;;;;5.83;5.33;;;11.30;61.50;;;;;;5013472;28;20635;-68
2022/04/20 02:07:57;;;;;;;5.87;5.37;;;11.30;61.90;;;;;;5012086;28;20458;-68
2022/04/20 02:10:22;;;;;;;6.80;6.10;;;11.30;61.40;;;;;;5013898;28;20193;-76
2022/04/20 02:12:48;;;;;;;6.40;5.80;;;11.20;61.10;;;;;;5014355;28;21114;-68
2022/04/20 02:15:14;;;;;;;6.60;6.00;;;11.00;61.00;;;;;;5011722;28;20229;-68
2022/04/20 02:17:39;;;;;;;6.33;5.67;;;11.10;61.40;;;;;;5012032;28;20646;-67
2022/04/20 02:20:06;;;;;;;6.10;5.60;;;11.10;61.80;;;;;;5011815;28;20190;-68
2022/04/20 02:22:32;;;;;;;6.47;5.77;;;11.20;62.90;;;;;;5004385;28;20267;-68
2022/04/20 02:24:59;;;;;;;8.73;8.03;;;11.00;62.70;;;;;;5007045;28;20526;-67
2022/04/20 02:27:29;;;;;;;8.13;7.20;;;11.00;62.80;;;;;;5011301;28;20955;-75
2022/04/20 02:29:54;;;;;;;7.43;6.50;;;10.80;62.70;;;;;;5008447;28;20440;-68
2022/04/20 02:32:22;;;;;;;6.20;5.60;;;10.70;63.00;;;;;;5013976;28;20434;-67
2022/04/20 02:34:48;;;;;;;8.33;6.43;;;10.60;63.30;;;;;;5012802;28;20207;-68
2022/04/20 02:37:14;;;;;;;7.20;6.13;;;10.50;63.80;;;;;;5014143;28;20447;-68
2022/04/20 02:39:41;;;;;;;6.60;6.10;;;10.50;64.30;;;;;;5014620;28;20980;-68
2022/04/20 02:42:07;;;;;;;6.83;6.23;;;10.40;64.60;;;;;;5005381;28;20492;-67
2022/04/20 02:44:33;;;;;;;7.17;5.50;;;10.50;66.00;;;;;;5012246;28;20441;-67
2022/04/20 02:46:59;;;;;;;6.90;5.10;;;10.50;65.90;;;;;;5011822;28;20464;-67
2022/04/20 02:49:25;;;;;;;6.07;5.47;;;10.60;67.20;;;;;;5011293;28;20479;-75
2022/04/20 02:51:51;;;;;;;5.97;5.47;;;10.60;67.90;;;;;;5010164;28;20435;-71
2022/04/20 02:54:17;;;;;;;5.40;4.90;;;10.60;66.10;;;;;;5014079;28;20827;-69
2022/04/20 02:56:42;;;;;;;5.63;5.00;;;10.70;66.00;;;;;;5010729;28;20199;-67
2022/04/20 02:59:08;;;;;;;5.30;4.80;;;10.60;66.00;;;;;;5013050;28;20517;-67
2022/04/20 03:01:34;;;;;;;5.33;4.93;;;10.60;66.20;;;;;;5011872;28;20194;-67
2022/04/20 03:04:00;;;;;;;6.20;5.47;;;10.60;66.20;;;;;;5012978;28;20235;-68
2022/04/20 03:06:27;;;;;;;5.70;5.17;;;10.50;66.20;;;;;;5011104;28;20222;-76
2022/04/20 03:08:54;;;;;;;5.93;5.43;;;10.30;66.70;;;;;;5012291;28;20197;-68
2022/04/20 03:11:20;;;;;;;7.23;5.30;;;10.30;68.50;;;;;;4995788;28;20946;-67
2022/04/20 03:13:46;;;;;;;5.57;5.07;;;10.30;70.00;;;;;;5011677;28;21061;-67
2022/04/20 03:16:12;;;;;;;6.37;5.73;;;10.30;70.60;;;;;;5007668;28;20769;-67
2022/04/20 03:18:38;;;;;;;5.70;5.17;;;10.30;70.30;;;;;;5013298;28;20439;-67
2022/04/20 03:21:03;;;;;;;6.20;5.60;;;10.30;71.00;;;;;;5013729;28;20561;-68
2022/04/20 03:23:30;;;;;;;5.67;5.27;;;10.30;71.30;;;;;;5011476;28;20637;-69
2022/04/20 03:25:56;;;;;;;6.10;5.40;;;10.20;71.70;;;;;;5005892;28;20673;-67
2022/04/20 03:28:22;;;;;;;5.93;5.43;;;10.20;72.10;;;;;;5012018;28;20577;-67
2022/04/20 03:30:48;;;;;;;5.90;5.20;;;10.20;72.50;;;;;;4989671;28;20505;-67
2022/04/20 03:33:14;;;;;;;6.40;5.80;;;10.20;73.20;;;;;;4997573;28;20632;-68
2022/04/20 03:35:40;;;;;;;8.43;7.67;;;10.10;73.30;;;;;;5013965;28;20181;-67
2022/04/20 03:38:10;;;;;;;5.87;5.30;;;10.10;73.90;;;;;;5013348;28;20438;-67
2022/04/20 03:40:35;;;;;;;7.07;5.93;;;10.00;73.70;;;;;;5012269;28;21604;-67
2022/04/20 03:43:02;;;;;;;5.50;4.90;;;10.00;73.90;;;;;;5014279;28;20433;-67
2022/04/20 03:45:27;;;;;;;5.40;5.00;;;9.90;74.90;;;;;;5009127;28;20477;-75
2022/04/20 03:47:53;;;;;;;6.20;5.60;;;9.90;75.60;;;;;;5009208;28;20549;-68
2022/04/20 03:50:19;;;;;;;7.10;6.40;;;9.90;75.50;;;;;;5003369;28;20212;-68
2022/04/20 03:52:45;;;;;;;7.10;6.40;;;9.80;75.20;;;;;;5010075;28;20543;-67
2022/04/20 03:55:11;;;;;;;6.27;5.67;;;9.80;75.50;;;;;;5011957;28;20793;-67
2022/04/20 03:57:37;;;;;;;5.77;5.37;;;9.80;75.60;;;;;;5011767;28;20431;-68
2022/04/20 04:00:05;;;;;;;6.27;4.87;;;9.80;76.80;;;;;;5011825;28;20650;-68
2022/04/20 04:02:30;;;;;;;7.50;5.43;;;9.80;76.50;;;;;;5010100;28;20238;-76
2022/04/20 04:04:56;;;;;;;7.80;6.00;;;9.70;76.30;;;;;;5000377;28;20523;-66
2022/04/20 04:07:22;;;;;;;6.57;6.07;;;9.70;76.80;;;;;;5010373;28;20293;-68
2022/04/20 04:09:48;;;;;;;7.70;6.97;;;9.70;77.30;;;;;;4993440;28;20820;-68
2022/04/20 04:12:14;;;;;;;8.67;5.70;;;9.60;77.80;;;;;;5009826;28;20442;-67
2022/04/20 04:14:40;;;;;;;9.30;5.70;;;9.40;77.20;;;;;;5011911;28;20645;-68
2022/04/20 04:17:06;;;;;;;5.70;5.10;;;9.70;78.00;;;;;;5011051;28;20951;-68
2022/04/20 04:19:34;;;;;;;6.40;5.80;;;9.60;77.80;;;;;;5008883;28;20438;-72
2022/04/20 04:22:01;;;;;;;7.60;5.80;;;9.60;78.40;;;;;;5012410;28;20453;-68
2022/04/20 04:24:35;;;;;;;8.10;6.27;;;9.40;78.50;;;;;;5011501;28;20440;-69
2022/04/20 04:27:03;;;;;;;6.67;6.00;;;9.60;78.70;;;;;;5009522;28;20505;-68
2022/04/20 04:29:28;;;;;;;7.33;6.73;;;9.50;79.40;;;;;;5007668;28;20456;-75
2022/04/20 04:31:55;;;;;;;6.93;6.30;;;9.50;80.40;;;;;;5001748;28;20440;-67
2022/04/20 04:34:21;;;;;;;6.10;5.50;;;9.40;80.30;;;;;;5010209;28;20435;-68
2022/04/20 04:36:47;;;;;;;6.00;5.20;;;9.40;80.50;;;;;;5008819;28;20441;-67
2022/04/20 04:39:17;;;;;;;6.30;5.67;;;9.40;79.70;;;;;;5011397;28;20701;-70
2022/04/20 04:41:45;;;;;;;8.30;6.70;;;9.40;80.60;;;;;;5010245;28;20439;-68
2022/04/20 04:44:10;;;;;;;6.80;5.30;;;8.90;80.90;;;;;;5012180;28;20488;-68
2022/04/20 04:49:20;;;;;;;6.57;6.07;;;9.20;82.70;;;;;;5008426;28;20317;-67
2022/04/20 04:51:46;;;;;;;5.87;5.37;;;9.10;84.00;;;;;;5005374;28;20573;-71
2022/04/20 04:54:12;;;;;;;5.83;5.27;;;9.20;85.10;;;;;;5010177;28;22099;-68
2022/04/20 04:56:37;;;;;;;5.73;5.10;;;9.10;85.10;;;;;;5011736;28;20195;-68
2022/04/20 04:59:03;;;;;;;6.43;5.00;;;9.00;85.40;;;;;;5009904;28;20195;-68
2022/04/20 05:01:29;;;;;;;6.60;6.10;;;9.00;85.20;;;;;;5004441;28;20459;-69
2022/04/20 05:03:55;;;;;;;5.60;5.10;;;9.00;86.00;;;;;;5007331;28;20253;-70
2022/04/20 05:06:20;;;;;;;7.13;5.43;;;8.90;86.70;;;;;;5010585;28;20226;-70
2022/04/20 05:08:46;;;;;;;9.30;7.07;;;9.00;86.90;;;;;;5004958;28;20183;-70
2022/04/20 05:11:12;;;;;;;6.27;5.37;;;8.90;85.90;;;;;;5011994;28;20237;-70
2022/04/20 05:13:38;;;;;;;18.40;5.87;;;9.00;85.60;;;;;;5008565;28;20434;-70
2022/04/20 05:16:04;;;;;;;7.13;6.37;;;8.70;87.00;;;;;;5007624;28;20262;-72
2022/04/20 05:18:30;;;;;;;9.40;5.23;;;9.00;87.80;;;;;;5009875;28;20619;-70
2022/04/20 05:20:56;;;;;;;5.80;5.27;;;9.10;89.00;;;;;;5009669;28;20442;-71
2022/04/20 05:23:22;;;;;;;9.60;5.90;;;9.10;88.20;;;;;;5008089;28;20437;-71
2022/04/20 05:25:48;;;;;;;8.60;5.80;;;9.00;86.20;;;;;;5010163;28;20206;-70
2022/04/20 05:28:14;;;;;;;14.13;9.67;;;9.00;87.00;;;;;;5005914;28;20207;-71
2022/04/20 05:30:40;;;;;;;9.20;7.87;;;9.10;87.20;;;;;;5005621;28;20436;-72
2022/04/20 05:33:05;;;;;;;7.00;6.30;;;9.10;86.80;;;;;;5006140;28;20298;-70
2022/04/20 05:35:31;;;;;;;9.10;6.20;;;9.20;90.80;;;;;;5006670;28;20512;-70
2022/04/20 05:43:26;;;;;;;8.43;6.50;;;9.30;86.80;;;;;;5014065;28;20431;-69
2022/04/20 05:45:52;;;;;;;8.10;7.30;;;9.30;86.70;;;;;;5009124;28;20423;-69
2022/04/20 05:48:18;;;;;;;9.57;6.30;;;9.30;87.00;;;;;;5005760;28;20642;-69
2022/04/20 05:50:44;;;;;;;9.60;6.43;;;9.30;88.00;;;;;;5004377;28;20485;-69
2022/04/20 05:53:10;;;;;;;10.63;7.10;;;9.30;87.70;;;;;;5007777;28;20175;-69
2022/04/20 05:55:35;;;;;;;12.73;6.63;;;9.30;87.10;;;;;;5004597;28;20214;-73
2022/04/20 05:58:01;;;;;;;10.70;7.53;;;9.40;87.50;;;;;;5010243;28;20484;-68
2022/04/20 06:00:31;;;;;;;7.13;6.43;;;9.40;86.90;;;;;;5009775;28;20468;-69
2022/04/20 06:02:57;;;;;;;10.33;6.50;;;9.50;87.50;;;;;;5009925;28;20445;-68
2022/04/20 06:05:23;;;;;;;12.87;7.47;;;9.60;87.40;;;;;;5006121;28;20489;-68
2022/04/20 06:07:49;;;;;;;10.10;7.00;;;9.60;86.00;;;;;;5009014;28;20857;-71
2022/04/20 06:10:15;;;;;;;10.23;7.30;;;9.60;85.10;;;;;;5009153;28;20953;-68
2022/04/20 06:12:41;;;;;;;9.53;7.30;;;9.60;84.50;;;;;;5009053;28;20449;-68
2022/04/20 06:15:08;;;;;;;8.57;7.37;;;9.70;84.80;;;;;;5011319;28;20427;-67
2022/04/20 06:17:34;;;;;;;9.00;7.60;;;9.70;84.20;;;;;;5008769;28;20439;-66
2022/04/20 06:20:01;;;;;;;11.43;8.47;;;9.80;83.70;;;;;;5008699;28;20530;-67
2022/04/20 06:22:27;;;;;;;8.00;6.80;;;9.90;84.00;;;;;;5011286;28;20424;-67
2022/04/20 06:24:53;;;;;;;11.30;8.70;;;9.60;82.90;;;;;;5008197;28;20520;-67
2022/04/20 06:27:18;;;;;;;8.73;7.77;;;10.10;81.30;;;;;;5009239;28;20567;-67
2022/04/20 06:29:44;;;;;;;9.00;8.10;;;10.10;80.90;;;;;;5010682;28;20189;-67
2022/04/20 06:32:10;;;;;;;9.37;8.47;;;10.00;80.80;;;;;;5007987;28;20210;-67
2022/04/20 06:34:36;;;;;;;9.27;8.37;;;10.20;80.20;;;;;;5008580;28;20526;-70
2022/04/20 06:37:05;;;;;;;9.77;8.13;;;10.30;79.70;;;;;;5008630;28;20191;-69
2022/04/20 06:39:31;;;;;;;9.10;8.30;;;10.30;80.00;;;;;;5005653;28;20609;-67
2022/04/20 06:41:57;;;;;;;8.77;7.80;;;10.30;81.00;;;;;;5008348;28;20992;-68
2022/04/20 06:44:23;;;;;;;8.00;7.20;;;10.40;80.30;;;;;;5015029;28;20449;-67
2022/04/20 06:46:48;;;;;;;8.10;7.30;;;10.40;80.00;;;;;;5009680;28;20214;-67
2022/04/20 06:49:15;;;;;;;7.50;6.80;;;10.50;80.70;;;;;;5014410;28;20324;-67
2022/04/20 06:59:54;;;;;;;5.93;5.40;;;10.80;78.60;;;;;;5012513;28;20427;-70
2022/04/20 07:02:21;;;;;;;6.10;5.50;;;10.90;78.30;;;;;;5009666;28;20432;-70
2022/04/20 07:04:47;;;;;;;8.40;6.60;;;11.00;76.80;;;;;;5012242;28;20562;-69
2022/04/20 07:07:13;;;;;;;6.90;5.70;;;11.20;77.90;;;;;;5007655;28;20472;-68
2022/04/20 07:09:39;;;;;;;6.97;6.33;;;11.30;76.10;;;;;;5011677;28;20432;-70
2022/04/20 07:12:05;;;;;;;10.23;9.33;;;11.40;78.10;;;;;;5011397;28;20445;-68
2022/04/20 07:14:30;;;;;;;9.20;7.50;;;11.50;78.20;;;;;;5013417;28;20481;-68
2022/04/20 07:16:56;;;;;;;7.53;6.93;;;11.60;78.30;;;;;;5013210;28;20914;-68
2022/04/20 07:19:22;;;;;;;7.63;6.93;;;11.70;76.40;;;;;;5011036;28;20191;-68
2022/04/20 07:21:48;;;;;;;7.60;6.20;;;11.80;76.70;;;;;;5011360;28;20183;-67
2022/04/20 07:24:14;;;;;;;6.20;5.60;;;11.90;77.40;;;;;;5009757;28;20941;-67
2022/04/20 07:26:40;;;;;;;5.53;5.10;;;12.00;77.60;;;;;;5009783;28;20206;-70
2022/04/20 07:29:06;;;;;;;6.30;5.70;;;12.10;76.70;;;;;;5011907;28;20432;-68
2022/04/20 07:31:31;;;;;;;5.73;5.17;;;12.30;75.40;;;;;;5014887;28;20932;-68
2022/04/20 07:33:58;;;;;;;5.77;5.27;;;12.40;74.80;;;;;;5008230;28;20423;-72
2022/04/20 07:36:23;;;;;;;9.90;5.93;;;12.50;73.60;;;;;;5009779;28;20201;-70
2022/04/20 07:38:49;;;;;;;8.10;5.47;;;12.70;74.50;;;;;;5008196;28;20448;-70
2022/04/20 07:41:16;;;;;;;7.00;6.30;;;12.70;72.20;;;;;;5011818;28;20231;-72
2022/04/20 07:43:42;;;;;;;7.03;6.33;;;12.80;74.00;;;;;;5006584;28;20189;-76
2022/04/20 07:46:08;;;;;;;7.13;6.47;;;12.90;75.60;;;;;;5011714;28;20431;-69
2022/04/20 07:48:33;;;;;;;11.13;5.77;;;13.10;75.70;;;;;;5010199;28;21001;-72
2022/04/20 07:51:02;;;;;;;6.70;6.10;;;13.10;73.90;;;;;;5013866;28;20253;-69
2022/04/20 07:53:28;;;;;;;5.53;5.13;;;13.30;70.00;;;;;;5008727;28;20544;-71
2022/04/20 07:55:53;;;;;;;5.50;5.10;;;13.30;68.50;;;;;;5011293;28;20526;-70
2022/04/20 07:58:20;;;;;;;5.50;5.10;;;13.40;70.30;;;;;;5012936;28;20633;-72
2022/04/20 08:00:45;;;;;;;5.27;4.67;;;13.60;72.00;;;;;;5012577;28;20298;-73
2022/04/20 08:03:12;;;;;;;5.50;5.00;;;13.70;69.00;;;;;;5010415;28;20859;-70
2022/04/20 08:05:39;;;;;;;6.37;5.77;;;13.80;66.70;;;;;;5013488;28;20193;-70
2022/04/20 08:08:06;;;;;;;5.83;5.43;;;14.00;69.40;;;;;;5016762;28;20523;-72
2022/04/20 08:10:32;;;;;;;5.10;4.30;;;14.10;66.30;;;;;;5009266;28;20775;-72
2022/04/20 08:12:58;;;;;;;5.40;4.90;;;14.30;65.00;;;;;;5008666;28;20500;-74
2022/04/20 08:15:23;;;;;;;5.57;4.53;;;14.50;66.30;;;;;;5007148;28;20438;-74
2022/04/20 08:17:49;;;;;;;6.80;6.40;;;14.70;65.00;;;;;;4997754;28;20191;-74
2022/04/20 08:20:15;;;;;;;6.17;5.77;;;14.90;63.00;;;;;;5007026;28;20194;-74
2022/04/20 08:22:45;;;;;;;7.10;5.60;;;15.10;65.40;;;;;;5006055;28;20184;-77
2022/04/20 08:25:12;;;;;;;5.03;4.50;;;15.30;64.80;;;;;;5010636;28;20185;-71
2022/04/20 08:27:39;;;;;;;4.90;4.50;;;15.40;62.00;;;;;;5012371;28;20508;-71
2022/04/20 08:30:07;;;;;;;4.93;4.63;;;15.60;60.60;;;;;;5012443;28;20436;-71
2022/04/20 08:32:33;;;;;;;6.83;6.33;;;15.60;56.90;;;;;;5013111;28;20508;-71
2022/04/20 08:34:59;;;;;;;5.23;4.87;;;15.60;59.90;;;;;;5011001;28;20504;-73
2022/04/20 08:37:25;;;;;;;6.60;6.10;;;15.90;61.90;;;;;;5002583;28;20473;-72
2022/04/20 08:39:50;;;;;;;6.07;5.60;;;16.10;59.50;;;;;;5009507;28;20179;-71
2022/04/20 08:42:20;;;;;;;5.70;5.20;;;16.30;59.30;;;;;;5009434;28;20186;-73
2022/04/20 08:44:49;;;;;;;6.03;5.53;;;16.50;58.50;;;;;;5001689;28;20592;-72
2022/04/20 08:47:22;;;;;;;5.40;5.00;;;16.40;58.00;;;;;;5005342;28;20483;-72
2022/04/20 08:49:52;;;;;;;5.00;4.60;;;16.20;56.70;;;;;;5007330;28;20468;-71
2022/04/20 08:52:39;;;;;;;4.73;4.33;;;16.30;61.70;;;;;;5000433;28;20990;-71
2022/04/20 08:55:16;;;;;;;6.60;4.80;;;16.60;64.50;;;;;;5008536;28;20437;-71
2022/04/20 08:57:47;;;;;;;6.80;6.20;;;16.80;64.00;;;;;;4998273;28;20855;-76
2022/04/20 09:00:22;;;;;;;5.40;4.97;;;16.90;61.00;;;;;;5009464;28;20445;-73
2022/04/20 09:02:53;;;;;;;5.43;4.87;;;17.00;58.30;;;;;;5005218;28;20857;-72
2022/04/20 09:05:20;;;;;;;4.83;4.53;;;17.00;57.70;;;;;;5005424;28;20449;-71
2022/04/20 09:07:46;;;;;;;6.20;5.80;;;17.10;57.90;;;;;;5008620;28;20491;-75
2022/04/20 09:10:12;;;;;;;4.60;4.17;;;17.10;56.80;;;;;;5009269;28;20430;-72
2022/04/20 09:12:42;;;;;;;4.80;4.47;;;17.00;56.00;;;;;;5002131;28;20953;-71
2022/04/20 09:15:09;;;;;;;5.67;5.27;;;17.00;56.80;;;;;;5010049;28;20898;-71
2022/04/20 09:17:47;;;;;;;5.67;5.30;;;17.20;57.20;;;;;;5012432;28;20913;-71
2022/04/20 09:20:17;;;;;;;4.93;4.63;;;17.20;56.30;;;;;;5011826;28;20540;-71
2022/04/20 09:22:59;;;;;;;4.87;4.50;;;17.50;57.30;;;;;;5011370;28;20429;-77
2022/04/20 09:25:38;;;;;;;6.93;6.33;;;17.40;54.10;;;;;;5012748;28;20402;-71
2022/04/20 09:28:06;;;;;;;6.43;5.57;;;17.60;55.10;;;;;;5010860;28;20471;-71
2022/04/20 09:30:40;;;;;;;5.27;4.87;;;17.90;56.30;;;;;;5010326;28;20906;-71
2022/04/20 09:33:07;;;;;;;5.33;5.03;;;18.10;56.10;;;;;;5010794;28;20483;-71
2022/04/20 09:35:44;;;;;;;5.03;4.60;;;18.10;54.30;;;;;;5011403;28;20429;-71
2022/04/20 09:38:11;;;;;;;6.03;5.53;;;18.20;54.60;;;;;;5010727;28;20496;-71
2022/04/20 09:40:38;;;;;;;5.80;5.40;;;18.40;53.60;;;;;;5011396;28;20434;-70
2022/04/20 09:43:18;;;;;;;4.33;3.87;;;18.50;52.00;;;;;;5011825;28;20425;-70
2022/04/20 09:46:00;;;;;;;6.47;4.80;;;18.60;52.90;;;;;;4992238;28;20430;-77
2022/04/20 09:51:13;;;;;;;4.47;4.13;;;19.00;52.10;;;;;;4992280;28;20406;-70
2022/04/20 09:53:43;;;;;;;6.27;5.17;;;19.10;52.40;;;;;;5002873;28;20446;-70
2022/04/20 09:56:16;;;;;;;6.20;5.80;;;19.30;53.60;;;;;;5011756;28;20418;-70
2022/04/20 09:58:43;;;;;;;5.87;5.47;;;19.50;52.70;;;;;;5011083;28;20461;-70
2022/04/20 10:01:24;;;;;;;6.97;6.57;;;19.60;51.30;;;;;;5009230;28;20473;-70
2022/04/20 10:03:56;;;;;;;6.67;6.37;;;19.70;51.00;;;;;;5009329;28;20426;-71
2022/04/20 10:06:22;;;;;;;6.07;5.67;;;19.60;52.40;;;;;;5012609;28;20500;-70
2022/04/20 10:08:49;;;;;;;7.13;6.63;;;19.80;51.70;;;;;;5010457;28;20895;-77
2022/04/20 10:11:15;;;;;;;7.43;6.93;;;19.90;53.30;;;;;;5011198;28;20520;-70
2022/04/20 10:13:42;;;;;;;6.00;5.70;;;20.10;51.70;;;;;;5012210;28;20418;-70
2022/04/20 10:16:10;;;;;;;7.27;5.70;;;20.20;52.10;;;;;;5009092;28;21058;-70
2022/04/20 10:18:44;;;;;;;6.27;5.67;;;20.30;52.50;;;;;;5013638;28;20438;-70
2022/04/20 10:21:14;;;;;;;5.90;5.53;;;20.30;50.10;;;;;;5014959;28;20609;-70
2022/04/20 10:23:43;;;;;;;4.97;4.57;;;20.30;51.10;;;;;;5013994;28;20438;-70
2022/04/20 10:26:10;;;;;;;5.20;4.90;;;20.30;51.30;;;;;;5013224;28;20495;-70
2022/04/20 10:29:15;;;;;;;5.40;5.00;;;20.30;52.10;;;;;;5015970;28;20998;-70
2022/04/20 10:31:58;;;;;;;5.63;5.33;;;20.30;51.90;;;;;;4976015;28;20434;-70
2022/04/20 10:34:25;;;;;;;6.50;6.10;;;20.60;50.60;;;;;;5013844;28;20933;-70
2022/04/20 10:37:03;;;;;;;5.53;5.13;;;20.60;51.00;;;;;;5014396;28;20444;-77
2022/04/20 10:39:36;;;;;;;5.90;5.60;;;20.60;51.40;;;;;;5014897;28;20431;-70
2022/04/20 10:42:11;;;;;;;4.80;4.40;;;20.40;47.30;;;;;;5014791;28;20402;-70
2022/04/20 10:44:55;;;;;;;6.13;5.63;;;20.30;50.00;;;;;;5013547;28;20786;-71
2022/04/20 10:47:42;;;;;;;5.40;5.10;;;20.40;50.60;;;;;;5014574;28;20485;-70
2022/04/20 10:50:16;;;;;;;5.47;5.07;;;20.70;51.90;;;;;;5013383;28;20499;-70
2022/04/20 10:52:47;;;;;;;6.93;6.47;;;20.80;51.50;;;;;;5015470;28;20444;-70
2022/04/20 10:55:13;;;;;;;6.13;5.53;;;21.00;50.40;;;;;;5012970;28;20449;-70
2022/04/20 10:57:41;;;;;;;6.17;5.43;;;21.00;49.10;;;;;;5013124;28;20532;-70
2022/04/20 11:00:21;;;;;;;6.00;5.60;;;20.90;51.10;;;;;;5014587;28;20425;-70
2022/04/20 11:02:51;;;;;;;5.47;5.10;;;21.10;50.10;;;;;;5015123;28;20442;-70
2022/04/20 11:05:24;;;;;;;6.97;6.50;;;21.20;48.50;;;;;;5013671;28;20438;-70
2022/04/20 11:08:07;;;;;;;9.60;8.90;;;21.40;49.70;;;;;;4996484;28;20465;-76
2022/04/20 11:10:34;;;;;;;6.60;6.20;;;21.50;50.30;;;;;;5015037;28;20452;-70
2022/04/20 11:19:13;;;;;;;7.40;6.90;;;21.50;48.10;;;;;;5011877;28;20437;-77
2022/04/20 11:22:10;;;;;;;7.73;7.23;;;21.10;45.90;;;;;;5014852;28;20433;-70
2022/04/20 11:24:36;;;;;;;7.20;6.70;;;21.00;47.70;;;;;;4995230;28;20887;-71
2022/04/20 11:27:02;;;;;;;6.80;6.10;;;21.00;50.00;;;;;;5003539;28;20469;-70
2022/04/20 11:29:29;;;;;;;7.10;6.70;;;21.10;51.40;;;;;;5013383;28;20182;-70
2022/04/20 11:32:03;;;;;;;6.37;5.90;;;21.20;50.30;;;;;;5012844;28;20605;-75
2022/04/20 11:34:33;;;;;;;6.33;5.93;;;21.40;50.50;;;;;;5013446;28;20428;-70
2022/04/20 11:37:02;;;;;;;8.73;5.93;;;21.60;49.20;;;;;;5013932;28;20450;-70
2022/04/20 11:39:29;;;;;;;6.23;5.70;;;21.40;48.60;;;;;;5013887;28;20434;-70
2022/04/20 11:41:57;;;;;;;6.30;5.77;;;21.40;47.50;;;;;;5012725;28;20959;-74
2022/04/20 11:44:36;;;;;;;6.47;6.00;;;21.40;48.50;;;;;;5014286;28;20767;-70
2022/04/20 11:47:12;;;;;;;5.60;5.20;;;21.40;50.10;;;;;;4994296;28;20545;-70
2022/04/20 11:49:44;;;;;;;6.83;6.43;;;21.50;50.10;;;;;;5006759;28;20468;-70
2022/04/20 11:52:14;;;;;;;7.37;6.87;;;21.50;49.00;;;;;;5012727;28;20688;-70
2022/04/20 11:54:46;;;;;;;6.27;5.87;;;21.30;47.10;;;;;;5014803;28;20405;-70
2022/04/20 11:57:14;;;;;;;6.70;6.10;;;21.00;49.40;;;;;;5012607;28;20449;-70
2022/04/20 11:59:50;;;;;;;6.33;5.90;;;21.10;50.00;;;;;;5013359;28;20476;-70
2022/04/20 12:02:17;;;;;;;6.00;5.50;;;21.30;51.20;;;;;;5012168;28;20488;-70
2022/04/20 12:04:43;;;;;;;6.17;5.67;;;21.20;47.50;;;;;;5012647;28;20502;-70
2022/04/20 12:07:10;;;;;;;5.43;5.13;;;20.90;48.00;;;;;;5012032;28;20457;-70
2022/04/20 12:09:39;;;;;;;6.30;5.80;;;20.80;49.30;;;;;;5014150;28;20414;-70
2022/04/20 12:12:07;;;;;;;5.93;5.53;;;20.60;48.30;;;;;;4995190;28;20442;-71
2022/04/20 12:14:34;;;;;;;6.30;5.80;;;20.60;49.80;;;;;;4996331;28;20449;-70
2022/04/20 12:17:13;;;;;;;5.27;4.87;;;20.60;49.00;;;;;;5012883;28;20410;-71
2022/04/20 12:19:42;;;;;;;5.27;4.77;;;20.50;49.40;;;;;;5013031;28;20572;-70
2022/04/20 12:22:17;;;;;;;5.73;5.33;;;20.50;50.90;;;;;;5012102;28;20429;-71
2022/04/20 12:24:43;;;;;;;5.07;4.73;;;20.60;49.20;;;;;;5012549;28;20394;-70
2022/04/20 12:27:20;;;;;;;5.17;4.87;;;20.70;50.20;;;;;;5012882;28;20485;-70
2022/04/20 12:29:59;;;;;;;5.77;5.27;;;20.70;49.10;;;;;;5012418;28;20966;-70
2022/04/20 12:32:31;;;;;;;6.43;5.50;;;20.80;50.00;;;;;;5012311;28;20413;-70
2022/04/20 12:35:01;;;;;;;6.00;5.60;;;20.80;49.30;;;;;;5013182;28;20406;-77
2022/04/20 12:37:31;;;;;;;6.57;6.17;;;20.90;50.10;;;;;;5012473;28;20442;-70
2022/04/20 12:40:17;;;;;;;6.07;5.60;;;20.80;50.10;;;;;;5011644;28;20434;-77
2022/04/20 12:43:08;;;;;;;6.73;6.13;;;20.90;51.50;;;;;;4995988;28;20465;-70
2022/04/20 12:45:34;;;;;;;6.50;6.00;;;20.90;51.40;;;;;;5012208;28;20434;-70
2022/04/20 12:48:12;;;;;;;6.50;6.10;;;20.90;51.20;;;;;;5012245;28;20971;-70
2022/04/20 12:50:46;;;;;;;7.23;6.57;;;20.80;49.00;;;;;;5013451;28;20406;-70
2022/04/20 12:53:11;;;;;;;6.90;6.20;;;20.60;48.40;;;;;;5011266;28;20910;-71
2022/04/20 12:55:40;;;;;;;5.37;5.07;;;20.70;51.00;;;;;;5013247;28;20437;-70
2022/04/20 13:03:44;;;;;;;6.87;6.37;;;20.70;50.50;;;;;;5013160;28;20402;-70
2022/04/20 13:06:11;;;;;;;6.57;6.00;;;20.60;49.00;;;;;;5012371;28;20425;-70
2022/04/20 13:08:43;;;;;;;6.67;6.17;;;20.50;50.10;;;;;;5012904;28;20466;-70
2022/04/20 13:11:11;;;;;;;6.27;5.77;;;20.60;50.60;;;;;;5012452;28;20512;-70
2022/04/20 13:13:37;;;;;;;7.07;6.33;;;20.30;51.90;;;;;;5012660;28;20426;-70
2022/04/20 13:16:08;;;;;;;6.30;5.90;;;20.30;52.50;;;;;;5009615;28;20425;-71
2022/04/20 13:18:34;;;;;;;7.40;6.70;;;20.30;52.50;;;;;;5027981;28;20618;-70
2022/04/20 13:21:00;;;;;;;6.70;6.30;;;20.20;51.90;;;;;;5012213;28;20513;-76
2022/04/20 13:23:26;;;;;;;6.13;5.73;;;20.30;53.70;;;;;;5013227;28;20960;-70